Terminal Aerodrome Forecast
Issued by NWS

Home | Current Version | Previous Version | Graphics & Text | Print | Product List | Glossary On
Versions: 1 2 3 4 5 6 7 8 9 10 11 12 13 14 15 16 17 18 19 20 21 22 23 24 25 26 27 28 29 30 31 32 33 34 35 36 37 38
000
FTUS43 KLOT 260305 AAA
TAFORD
TAF AMD
KORD 260305Z 2603/2706 19008KT P6SM BKN250
     FM261300 19011KT P6SM BKN015 BKN150
     FM261500 19012KT 6SM -SHRA SCT015 OVC030
      TEMPO 2617/2620 3SM TSRA OVC020CB
     FM262300 22011G16KT P6SM SCT020 BKN035=

USA.gov is the U.S. government's official web portal to all federal, state and local government web resources and services.